createdAt,value
2023-04-18T00:00:10.704Z,84.48
2023-04-18T00:03:04.874Z,84.60
2023-04-18T00:05:34.034Z,85.12
2023-04-18T00:08:03.104Z,84.83
2023-04-18T00:10:32.021Z,84.84
2023-04-18T00:13:02.479Z,85.46
2023-04-18T00:15:31.788Z,85.19
2023-04-18T00:18:03.997Z,85.70
2023-04-18T00:20:33.391Z,85.37
2023-04-18T00:23:02.456Z,85.60
2023-04-18T00:25:31.252Z,85.60
2023-04-18T00:28:00.459Z,85.59
2023-04-18T00:30:30.710Z,85.25
2023-04-18T00:32:59.990Z,85.90
2023-04-18T00:35:28.874Z,85.88
2023-04-18T00:37:57.961Z,85.33
2023-04-18T00:40:26.908Z,85.46
2023-04-18T00:42:56.583Z,85.99
2023-04-18T00:45:25.401Z,85.36
2023-04-18T00:47:56.314Z,85.60
2023-04-18T00:50:25.446Z,86.21
2023-04-18T00:52:54.751Z,86.24
2023-04-18T00:55:23.788Z,86.95
2023-04-18T00:57:53.236Z,86.47
2023-04-18T01:00:22.046Z,86.36
2023-04-18T01:02:53.398Z,86.70
2023-04-18T01:05:23.950Z,86.73
2023-04-18T01:07:53.282Z,86.55
2023-04-18T01:10:22.050Z,87.06
2023-04-18T01:12:52.003Z,86.64
2023-04-18T01:15:20.975Z,86.61
2023-04-18T01:17:50.075Z,86.35
2023-04-18T01:20:18.977Z,86.24
2023-04-18T01:22:49.436Z,86.60
2023-04-18T01:25:19.724Z,86.56
2023-04-18T01:27:49.728Z,86.74
2023-04-18T01:30:18.607Z,87.43
2023-04-18T01:32:47.696Z,88.02
2023-04-18T01:35:17.614Z,87.08
2023-04-18T01:37:46.734Z,87.12
2023-04-18T01:40:15.689Z,86.50
2023-04-18T01:42:46.240Z,86.88
2023-04-18T01:45:15.202Z,85.93
2023-04-18T01:47:44.780Z,86.59
2023-04-18T01:50:14.169Z,87.17
2023-04-18T01:52:45.166Z,87.34
2023-04-18T01:55:14.202Z,86.57
2023-04-18T01:57:43.427Z,87.10
2023-04-18T02:00:14.417Z,86.86
2023-04-18T02:02:43.943Z,86.74
2023-04-18T02:05:12.980Z,87.14
2023-04-18T02:07:42.856Z,87.07
2023-04-18T02:10:12.072Z,87.16
2023-04-18T02:12:41.375Z,87.52
2023-04-18T02:15:10.733Z,87.19
2023-04-18T02:17:41.575Z,87.68
2023-04-18T02:20:11.272Z,87.92
2023-04-18T02:22:40.438Z,88.45
2023-04-18T02:25:09.542Z,87.51
2023-04-18T02:27:38.684Z,87.75
2023-04-18T02:30:08.145Z,88.22
2023-04-18T02:32:37.356Z,88.60
2023-04-18T02:35:08.088Z,87.95
2023-04-18T02:37:37.198Z,88.35
2023-04-18T02:40:07.341Z,88.41
2023-04-18T02:42:36.531Z,88.22
2023-04-18T02:45:05.732Z,88.01
2023-04-18T02:47:46.934Z,88.75
2023-04-18T02:50:21.865Z,88.23
2023-04-18T02:52:51.429Z,88.84
2023-04-18T02:55:22.224Z,89.17
2023-04-18T02:57:51.459Z,88.99
2023-04-18T03:00:38.702Z,88.87
2023-04-18T03:03:34.158Z,89.42
2023-04-18T03:06:31.800Z,89.72
2023-04-18T03:09:03.954Z,89.14
2023-04-18T03:11:35.306Z,89.33
2023-04-18T03:14:04.751Z,89.00
2023-04-18T03:16:42.626Z,89.06
2023-04-18T03:19:15.274Z,89.19
2023-04-18T03:21:45.729Z,88.95
2023-04-18T03:24:15.225Z,89.01
2023-04-18T03:26:47.147Z,89.09
2023-04-18T03:29:16.416Z,89.23
2023-04-18T03:31:47.392Z,88.93
2023-04-18T03:34:16.708Z,88.67
2023-04-18T03:36:48.265Z,88.67
2023-04-18T03:39:18.895Z,88.68
2023-04-18T03:41:48.272Z,88.73
2023-04-18T03:44:17.355Z,89.54
2023-04-18T03:46:46.384Z,89.53
2023-04-18T03:49:15.694Z,90.21
2023-04-18T03:51:47.770Z,89.55
2023-04-18T03:54:18.668Z,89.80
2023-04-18T03:56:47.566Z,89.54
2023-04-18T03:59:17.064Z,89.60
2023-04-18T04:01:50.095Z,90.09
2023-04-18T04:04:20.385Z,90.62
2023-04-18T04:06:49.418Z,89.99
2023-04-18T04:09:20.422Z,89.98
2023-04-18T04:11:49.290Z,88.72
2023-04-18T04:14:18.933Z,89.84
2023-04-18T04:16:48.489Z,90.15
2023-04-18T04:19:19.464Z,89.51
2023-04-18T04:21:56.491Z,89.66
2023-04-18T04:24:29.146Z,88.82
2023-04-18T04:26:59.014Z,90.30
2023-04-18T04:29:29.063Z,89.94
2023-04-18T04:31:59.850Z,90.20
2023-04-18T04:34:35.877Z,89.85
2023-04-18T04:37:08.192Z,88.63
2023-04-18T04:39:44.942Z,88.68
2023-04-18T04:42:32.036Z,88.15
2023-04-18T04:45:09.432Z,88.12
2023-04-18T04:47:38.672Z,88.65
2023-04-18T04:50:14.664Z,88.30
2023-04-18T04:52:43.716Z,88.51
2023-04-18T04:55:14.226Z,88.58
2023-04-18T04:57:44.882Z,88.92
2023-04-18T05:00:40.449Z,89.06
2023-04-18T05:03:09.949Z,89.36
2023-04-18T05:05:39.181Z,89.78
2023-04-18T05:08:08.019Z,89.70
2023-04-18T05:10:38.527Z,89.15
2023-04-18T05:13:07.376Z,89.61
2023-04-18T05:15:36.571Z,89.31
2023-04-18T05:18:06.315Z,90.29
2023-04-18T05:20:35.676Z,89.56
2023-04-18T05:23:04.476Z,89.14
2023-04-18T05:25:33.900Z,89.88
2023-04-18T05:28:04.651Z,89.63
2023-04-18T05:30:33.911Z,89.36
2023-04-18T05:33:02.745Z,89.68
2023-04-18T05:35:32.305Z,90.05
2023-04-18T05:38:01.110Z,90.05
2023-04-18T05:40:30.306Z,90.02
2023-04-18T05:42:59.075Z,89.62
2023-04-18T05:45:29.693Z,90.00
2023-04-18T05:47:58.597Z,89.58
2023-04-18T05:50:27.685Z,89.84
2023-04-18T05:52:59.334Z,89.79
2023-04-18T05:55:28.494Z,89.74
2023-04-18T05:57:57.249Z,89.21
2023-04-18T06:00:26.450Z,89.04
2023-04-18T06:02:56.810Z,89.00
2023-04-18T06:05:26.346Z,88.97
2023-04-18T06:07:55.311Z,88.35
2023-04-18T06:10:24.415Z,88.46
2023-04-18T06:12:53.240Z,88.69
2023-04-18T06:15:22.354Z,88.32
2023-04-18T06:17:51.467Z,88.68
2023-04-18T06:20:23.240Z,88.68
2023-04-18T06:22:52.150Z,88.48
2023-04-18T06:25:21.564Z,88.11
2023-04-18T06:27:50.639Z,88.37
2023-04-18T06:30:22.035Z,87.92
2023-04-18T06:32:51.171Z,88.16
2023-04-18T06:35:20.712Z,88.01
2023-04-18T06:37:51.154Z,87.98
2023-04-18T06:40:20.393Z,87.64
2023-04-18T06:42:49.149Z,86.98
2023-04-18T06:45:18.459Z,86.84
2023-04-18T06:47:48.063Z,86.46
2023-04-18T06:50:17.253Z,85.52
2023-04-18T06:52:46.064Z,85.63
2023-04-18T06:55:16.573Z,85.89
2023-04-18T06:57:45.608Z,85.82
2023-04-18T07:00:15.456Z,85.75
2023-04-18T07:02:44.410Z,86.36
2023-04-18T07:05:13.659Z,85.15
2023-04-18T07:07:42.566Z,85.30
2023-04-18T07:10:12.185Z,84.73
2023-04-18T07:12:42.478Z,84.55
2023-04-18T07:15:11.847Z,84.73
2023-04-18T07:17:40.685Z,84.10
2023-04-18T07:20:12.365Z,83.98
2023-04-18T07:22:42.826Z,83.75
2023-04-18T07:25:12.011Z,82.91
2023-04-18T07:27:42.293Z,82.49
2023-04-18T07:30:12.034Z,82.31
2023-04-18T07:32:40.895Z,81.88
2023-04-18T07:35:10.390Z,81.88
2023-04-18T07:37:39.365Z,81.86
2023-04-18T07:40:09.632Z,81.84
2023-04-18T07:42:38.459Z,81.50
2023-04-18T07:45:09.478Z,81.02
2023-04-18T07:47:38.367Z,81.08
2023-04-18T07:50:08.529Z,81.17
2023-04-18T07:52:38.315Z,80.48
2023-04-18T07:55:09.136Z,80.58
2023-04-18T07:57:37.962Z,80.27
2023-04-18T08:00:07.985Z,79.98
2023-04-18T08:02:43.115Z,79.39
2023-04-18T08:05:12.941Z,78.97
2023-04-18T08:07:41.926Z,79.73
2023-04-18T08:10:11.603Z,78.64
2023-04-18T08:12:40.708Z,78.84
2023-04-18T08:15:10.623Z,78.24
2023-04-18T08:17:39.969Z,77.81
2023-04-18T08:20:10.803Z,78.27
2023-04-18T08:22:46.964Z,77.15
2023-04-18T08:25:28.870Z,75.84
2023-04-18T08:27:57.895Z,76.89
2023-04-18T08:30:27.137Z,75.82
2023-04-18T08:32:56.005Z,76.14
2023-04-18T08:35:26.692Z,76.36
2023-04-18T08:37:55.529Z,75.71
2023-04-18T08:40:24.722Z,74.74
2023-04-18T08:42:54.018Z,74.90
2023-04-18T08:45:24.413Z,74.37
2023-04-18T08:47:53.488Z,74.39
2023-04-18T08:50:23.220Z,73.38
2023-04-18T08:52:55.536Z,73.90
2023-04-18T08:55:24.695Z,72.75
2023-04-18T08:57:55.296Z,74.12
2023-04-18T09:00:24.502Z,72.07
2023-04-18T09:02:56.788Z,72.10
2023-04-18T09:05:28.131Z,73.15
2023-04-18T09:07:58.409Z,71.52
2023-04-18T09:10:32.665Z,71.47
2023-04-18T09:13:03.405Z,71.72
2023-04-18T09:15:32.950Z,71.52
2023-04-18T09:18:03.210Z,70.39
2023-04-18T09:20:38.031Z,71.48
2023-04-18T09:23:11.488Z,70.65
2023-04-18T09:25:46.669Z,69.65
2023-04-18T09:28:27.068Z,69.83
2023-04-18T09:30:57.184Z,69.61
2023-04-18T09:33:28.341Z,70.36
2023-04-18T09:36:00.320Z,69.98
2023-04-18T09:38:41.423Z,70.67
2023-04-18T09:41:11.307Z,70.51
2023-04-18T09:43:40.340Z,69.79
2023-04-18T09:46:09.866Z,69.52
2023-04-18T09:48:39.630Z,69.35
2023-04-18T09:51:09.429Z,67.42
2023-04-18T09:53:39.749Z,68.23
2023-04-18T09:56:12.655Z,68.90
2023-04-18T09:58:42.713Z,69.06
2023-04-18T10:01:13.438Z,68.97
2023-04-18T10:03:45.645Z,69.35
2023-04-18T10:06:17.085Z,68.55
2023-04-18T10:08:46.468Z,67.77
2023-04-18T10:11:18.575Z,67.93
2023-04-18T10:13:49.250Z,68.46
2023-04-18T10:16:18.534Z,68.38
2023-04-18T10:18:47.393Z,68.99
2023-04-18T10:21:16.835Z,67.53
2023-04-18T10:23:48.820Z,68.99
2023-04-18T10:26:19.414Z,68.38
2023-04-18T10:28:51.220Z,68.90
2023-04-18T10:31:20.483Z,68.17
2023-04-18T10:34:03.183Z,67.68
2023-04-18T10:36:34.167Z,67.81
2023-04-18T10:39:04.349Z,68.18
2023-04-18T10:41:35.250Z,67.78
2023-04-18T10:44:18.425Z,66.88
2023-04-18T10:47:06.478Z,66.23
2023-04-18T10:49:37.187Z,66.43
2023-04-18T10:52:06.929Z,67.63
2023-04-18T10:54:47.770Z,66.55
2023-04-18T10:57:18.353Z,66.79
2023-04-18T10:59:49.644Z,65.34
2023-04-18T11:02:26.433Z,66.53
2023-04-18T11:04:56.336Z,65.54
2023-04-18T11:07:33.395Z,65.33
2023-04-18T11:10:02.629Z,66.22
2023-04-18T11:12:34.821Z,65.88
2023-04-18T11:15:10.907Z,65.74
2023-04-18T11:17:41.285Z,64.88
2023-04-18T11:20:12.900Z,65.06
2023-04-18T11:22:46.637Z,64.69
2023-04-18T11:25:16.430Z,65.89
2023-04-18T11:27:47.720Z,65.60
2023-04-18T11:30:16.808Z,64.59
2023-04-18T11:32:45.952Z,63.23
2023-04-18T11:35:15.865Z,63.45
2023-04-18T11:37:45.993Z,63.29
2023-04-18T11:40:15.141Z,63.43
2023-04-18T11:42:44.430Z,63.53
2023-04-18T11:45:15.456Z,63.36
2023-04-18T11:47:44.946Z,63.67
2023-04-18T11:50:14.370Z,63.61
2023-04-18T11:52:43.623Z,63.69
2023-04-18T11:55:17.883Z,63.75
2023-04-18T11:57:53.516Z,63.16
2023-04-18T12:00:32.579Z,63.46
2023-04-18T12:03:02.969Z,62.77
2023-04-18T12:05:32.786Z,62.99
2023-04-18T12:08:09.076Z,62.96
2023-04-18T12:10:37.987Z,63.02
2023-04-18T12:13:08.142Z,63.11
2023-04-18T12:15:40.690Z,63.50
2023-04-18T12:18:10.235Z,63.28
2023-04-18T12:20:40.448Z,62.46
2023-04-18T12:23:09.588Z,62.74
2023-04-18T12:25:38.817Z,63.25
2023-04-18T12:28:15.627Z,63.22
2023-04-18T12:30:45.840Z,62.84
2023-04-18T12:33:15.000Z,60.99
2023-04-18T12:35:43.815Z,61.50
2023-04-18T12:38:12.970Z,62.28
2023-04-18T12:40:41.719Z,62.24
2023-04-18T12:43:11.356Z,62.68
2023-04-18T12:45:40.162Z,61.82
2023-04-18T12:48:10.697Z,61.88
2023-04-18T12:50:39.586Z,61.95
2023-04-18T12:53:08.647Z,61.04
2023-04-18T12:55:37.714Z,61.03
2023-04-18T12:58:06.875Z,61.77
2023-04-18T13:00:35.963Z,61.16
2023-04-18T13:03:05.981Z,61.80
2023-04-18T13:06:01.888Z,61.55
2023-04-18T13:08:31.054Z,61.03
2023-04-18T13:10:59.810Z,61.35
2023-04-18T13:13:29.156Z,60.58
2023-04-18T13:15:57.971Z,60.56
2023-04-18T13:18:27.107Z,61.89
2023-04-18T13:20:56.075Z,61.04
2023-04-18T13:23:26.692Z,60.65
2023-04-18T13:25:55.557Z,60.84
2023-04-18T13:28:26.208Z,61.55
2023-04-18T13:30:55.144Z,62.08
2023-04-18T13:33:24.273Z,63.28
2023-04-18T13:35:53.127Z,62.68
2023-04-18T13:38:22.227Z,62.92
2023-04-18T13:41:01.312Z,62.36
2023-04-18T13:44:11.592Z,62.93
2023-04-18T13:46:40.833Z,63.01
2023-04-18T13:49:09.898Z,63.64
2023-04-18T13:51:38.769Z,63.45
2023-04-18T13:54:07.910Z,62.68
2023-04-18T13:56:38.851Z,63.43
2023-04-18T13:59:08.065Z,63.14
2023-04-18T14:01:36.898Z,64.21
2023-04-18T14:04:06.557Z,64.34
2023-04-18T14:06:35.710Z,65.09
2023-04-18T14:09:08.006Z,64.91
2023-04-18T14:11:38.335Z,64.79
2023-04-18T14:14:07.957Z,64.73
2023-04-18T14:16:48.952Z,65.65
2023-04-18T14:19:18.219Z,66.33
2023-04-18T14:21:47.294Z,66.45
2023-04-18T14:24:16.624Z,66.36
2023-04-18T14:26:46.879Z,65.83
2023-04-18T14:29:16.492Z,66.59
2023-04-18T14:31:46.118Z,66.57
2023-04-18T14:34:15.562Z,66.52
2023-04-18T14:36:44.525Z,67.01
2023-04-18T14:39:13.828Z,68.07
2023-04-18T14:41:42.931Z,67.12
2023-04-18T14:44:13.585Z,67.20
2023-04-18T14:46:43.477Z,67.65
2023-04-18T14:49:13.492Z,67.63
2023-04-18T14:51:42.499Z,67.92
2023-04-18T14:54:11.631Z,67.70
2023-04-18T14:56:40.465Z,68.41
2023-04-18T14:59:09.558Z,68.49
2023-04-18T15:01:41.609Z,69.18
2023-04-18T15:04:11.045Z,69.24
2023-04-18T15:06:40.011Z,69.57
2023-04-18T15:09:09.204Z,69.61
2023-04-18T15:11:38.357Z,70.17
2023-04-18T15:14:07.529Z,70.33
2023-04-18T15:16:38.167Z,70.84
2023-04-18T15:19:08.748Z,70.09
2023-04-18T15:21:37.643Z,70.26
2023-04-18T15:24:07.111Z,69.95
2023-04-18T15:26:36.082Z,70.30
2023-04-18T15:29:05.193Z,69.05
2023-04-18T15:31:34.231Z,67.79
2023-04-18T15:34:03.653Z,66.87
2023-04-18T15:36:35.480Z,65.79
2023-04-18T15:39:05.761Z,65.69
2023-04-18T15:41:35.511Z,65.07
2023-04-18T15:44:06.602Z,65.04
2023-04-18T15:46:37.450Z,64.99
2023-04-18T15:49:06.708Z,64.78
2023-04-18T15:51:36.877Z,63.99
2023-04-18T15:54:06.608Z,63.95
2023-04-18T15:56:36.844Z,63.09
2023-04-18T15:59:07.333Z,61.27
2023-04-18T16:01:36.717Z,60.34
2023-04-18T16:04:06.060Z,59.91
2023-04-18T16:06:37.803Z,59.00
2023-04-18T16:09:07.017Z,58.73
2023-04-18T16:11:35.968Z,60.18
2023-04-18T16:14:05.391Z,59.86
2023-04-18T16:16:34.504Z,59.61
2023-04-18T16:19:04.438Z,58.40
2023-04-18T16:21:36.142Z,58.76
2023-04-18T16:24:05.785Z,59.29
2023-04-18T16:26:34.586Z,59.44
2023-04-18T16:29:03.754Z,60.16
2023-04-18T16:31:32.618Z,60.89
2023-04-18T16:34:03.316Z,61.93
2023-04-18T16:36:34.232Z,63.30
2023-04-18T16:39:05.173Z,63.01
2023-04-18T16:41:34.041Z,64.44
2023-04-18T16:44:03.624Z,64.62
2023-04-18T16:46:32.638Z,64.67
2023-04-18T16:49:02.268Z,64.81
2023-04-18T16:51:31.881Z,64.99
2023-04-18T16:54:01.012Z,65.18
2023-04-18T16:56:31.478Z,65.23
2023-04-18T16:59:00.707Z,65.25
2023-04-18T17:01:29.535Z,65.86
2023-04-18T17:03:59.289Z,66.31
2023-04-18T17:06:28.246Z,66.18
2023-04-18T17:08:58.727Z,66.89
2023-04-18T17:11:28.010Z,66.23
2023-04-18T17:13:58.471Z,65.98
2023-04-18T17:16:27.565Z,67.10
2023-04-18T17:18:56.727Z,66.05
2023-04-18T17:21:26.162Z,66.83
2023-04-18T17:23:56.468Z,68.05
2023-04-18T17:26:26.655Z,67.35
2023-04-18T17:28:56.028Z,67.79
2023-04-18T17:31:26.352Z,67.96
2023-04-18T17:33:56.389Z,67.68
2023-04-18T17:36:25.358Z,68.40
2023-04-18T17:38:54.499Z,68.30
2023-04-18T17:41:23.534Z,69.53
2023-04-18T17:43:52.859Z,69.66
2023-04-18T17:46:21.814Z,69.70
2023-04-18T17:48:52.336Z,70.81
2023-04-18T17:51:21.272Z,71.00
2023-04-18T17:53:50.404Z,70.32
2023-04-18T17:56:19.239Z,70.11
2023-04-18T17:58:48.298Z,70.65
2023-04-18T18:01:17.389Z,71.86
2023-04-18T18:03:47.277Z,71.13
2023-04-18T18:06:17.726Z,70.63
2023-04-18T18:08:46.861Z,70.28
2023-04-18T18:11:15.691Z,70.74
2023-04-18T18:13:46.714Z,70.58
2023-04-18T18:16:15.637Z,70.49
2023-04-18T18:18:44.949Z,70.11
2023-04-18T18:21:14.245Z,70.59
2023-04-18T18:23:44.764Z,70.13
2023-04-18T18:26:13.605Z,69.91
2023-04-18T18:28:42.724Z,69.75
2023-04-18T18:31:11.626Z,69.92
2023-04-18T18:33:40.747Z,69.89
2023-04-18T18:36:09.531Z,68.84
2023-04-18T18:38:38.617Z,69.00
2023-04-18T18:41:09.001Z,69.87
2023-04-18T18:43:38.114Z,68.89
2023-04-18T18:46:06.902Z,68.92
2023-04-18T18:48:38.216Z,68.35
2023-04-18T18:51:07.076Z,69.03
2023-04-18T18:53:37.740Z,69.26
2023-04-18T18:56:09.785Z,68.75
2023-04-18T18:58:39.248Z,68.65
2023-04-18T19:01:08.353Z,68.64
2023-04-18T19:03:37.650Z,68.59
2023-04-18T19:06:07.438Z,68.89
2023-04-18T19:08:36.536Z,68.56
2023-04-18T19:11:05.851Z,68.53
2023-04-18T19:13:36.363Z,68.41
2023-04-18T19:16:05.378Z,68.18
2023-04-18T19:18:34.453Z,67.48
2023-04-18T19:21:03.790Z,68.76
2023-04-18T19:23:32.882Z,68.12
2023-04-18T19:26:01.972Z,68.56
2023-04-18T19:28:31.370Z,68.46
2023-04-18T19:31:01.922Z,68.62
2023-04-18T19:33:31.111Z,69.17
2023-04-18T19:35:59.859Z,68.24
2023-04-18T19:38:29.052Z,68.55
2023-04-18T19:40:58.078Z,68.34
2023-04-18T19:43:27.198Z,68.63
2023-04-18T19:45:55.992Z,68.98
2023-04-18T19:48:26.549Z,69.47
2023-04-18T19:50:57.069Z,69.27
2023-04-18T19:53:26.164Z,69.11
2023-04-18T19:55:55.384Z,68.69
2023-04-18T19:58:39.818Z,69.97
2023-04-18T20:01:10.080Z,70.37
2023-04-18T20:03:41.453Z,69.61
2023-04-18T20:06:10.607Z,69.27
2023-04-18T20:08:41.542Z,69.83
2023-04-18T20:11:11.247Z,70.48
2023-04-18T20:13:40.816Z,70.27
2023-04-18T20:16:11.117Z,69.78
2023-04-18T20:18:44.082Z,70.30
2023-04-18T20:21:12.916Z,70.52
2023-04-18T20:23:42.726Z,70.75
2023-04-18T20:26:11.665Z,70.64
2023-04-18T20:28:40.768Z,70.86
2023-04-18T20:31:09.853Z,70.83
2023-04-18T20:33:38.959Z,70.79
2023-04-18T20:36:09.268Z,71.36
2023-04-18T20:38:38.354Z,71.28
2023-04-18T20:41:10.750Z,71.02
2023-04-18T20:43:41.174Z,70.70
2023-04-18T20:46:12.860Z,70.65
2023-04-18T20:48:42.033Z,71.47
2023-04-18T20:51:12.165Z,71.54
2023-04-18T20:53:41.278Z,71.53
2023-04-18T20:56:10.042Z,71.14
2023-04-18T20:58:39.233Z,71.04
2023-04-18T21:01:08.216Z,71.36
2023-04-18T21:03:37.659Z,71.21
2023-04-18T21:06:06.547Z,71.91
2023-04-18T21:08:38.015Z,71.14
2023-04-18T21:11:06.955Z,71.48
2023-04-18T21:13:36.151Z,71.61
2023-04-18T21:16:07.969Z,71.25
2023-04-18T21:18:37.242Z,71.39
2023-04-18T21:21:06.161Z,71.26
2023-04-18T21:23:42.012Z,71.76
2023-04-18T21:26:13.736Z,72.06
2023-04-18T21:29:00.875Z,72.92
2023-04-18T21:31:30.563Z,72.58
2023-04-18T21:34:00.480Z,72.37
2023-04-18T21:36:30.681Z,71.77
2023-04-18T21:39:00.899Z,72.02
2023-04-18T21:41:31.233Z,72.58
2023-04-18T21:44:00.342Z,72.83
2023-04-18T21:46:29.167Z,73.02
2023-04-18T21:48:58.264Z,72.98
2023-04-18T21:51:27.262Z,73.04
2023-04-18T21:53:56.363Z,72.10
2023-04-18T21:56:25.111Z,72.58
2023-04-18T21:58:55.646Z,73.94
2023-04-18T22:01:24.564Z,74.06
2023-04-18T22:03:53.990Z,73.42
2023-04-18T22:06:23.366Z,73.58
2023-04-18T22:08:52.544Z,74.06
2023-04-18T22:11:23.741Z,74.48
2023-04-18T22:13:54.299Z,75.14
2023-04-18T22:16:24.797Z,75.50
2023-04-18T22:18:54.306Z,75.35
2023-04-18T22:21:23.085Z,75.54
2023-04-18T22:23:52.110Z,74.59
2023-04-18T22:26:21.216Z,75.04
2023-04-18T22:28:50.307Z,75.94
2023-04-18T22:31:19.183Z,75.71
2023-04-18T22:33:49.705Z,75.83
2023-04-18T22:36:18.548Z,75.66
2023-04-18T22:38:47.611Z,76.33
2023-04-18T22:41:16.491Z,77.48
2023-04-18T22:43:45.633Z,77.06
2023-04-18T22:46:14.457Z,77.22
2023-04-18T22:48:44.953Z,76.65
2023-04-18T22:51:15.306Z,76.45
2023-04-18T22:53:44.361Z,76.52
2023-04-18T22:56:13.136Z,76.62
2023-04-18T22:58:42.258Z,77.38
2023-04-18T23:01:11.014Z,77.22
2023-04-18T23:03:40.328Z,76.78
2023-04-18T23:06:09.207Z,77.28
2023-04-18T23:08:39.721Z,77.48
2023-04-18T23:11:08.527Z,77.45
2023-04-18T23:13:37.636Z,77.52
2023-04-18T23:16:06.906Z,77.90
2023-04-18T23:18:35.990Z,78.18
2023-04-18T23:21:04.902Z,77.74
2023-04-18T23:23:33.984Z,77.73
2023-04-18T23:26:04.236Z,77.38
2023-04-18T23:28:34.175Z,77.98
2023-04-18T23:31:03.006Z,78.21
2023-04-18T23:33:33.394Z,78.86
2023-04-18T23:36:02.327Z,78.00
2023-04-18T23:38:31.826Z,78.37
2023-04-18T23:41:00.612Z,77.73
2023-04-18T23:43:31.130Z,78.22
2023-04-18T23:45:59.932Z,79.24
2023-04-18T23:48:28.955Z,78.15
2023-04-18T23:50:57.798Z,77.36
2023-04-18T23:53:26.840Z,78.05
2023-04-18T23:55:55.670Z,77.93
2023-04-18T23:58:26.412Z,78.86
